Time;durP1;ratioP1;P1;durP2;ratioP2;P2;SDS_P1;SDS_P2;PMS_P1;PMS_P2;Temp;Humidity;BMP_temperature;BMP_pressure;BME280_temperature;BME280_humidity;BME280_pressure;Samples;Min_cycle;Max_cycle;Signal;HPM_P1;HPM_P2
2022/03/08 00:00:15;;;;;;;6.88;3.35;;;-3275.60;80.70;;;;;;5052510;28;20029;-82
2022/03/08 00:02:41;;;;;;;7.38;3.28;;;-3275.60;80.50;;;;;;5051031;28;20021;-82
2022/03/08 00:05:07;;;;;;;5.45;2.42;;;-3275.70;80.20;;;;;;5046945;28;20530;-82
2022/03/08 00:07:33;;;;;;;5.45;2.80;;;-3275.80;79.80;;;;;;5045642;28;20048;-81
2022/03/08 00:09:58;;;;;;;6.10;2.97;;;-3275.80;79.70;;;;;;5049533;28;20028;-82
2022/03/08 00:12:23;;;;;;;5.05;2.30;;;-3275.80;79.40;;;;;;5049266;28;20033;-82
2022/03/08 00:14:49;;;;;;;5.47;2.80;;;-3275.80;79.10;;;;;;5054505;28;20086;-82
2022/03/08 00:17:14;;;;;;;5.82;2.42;;;-3275.80;79.20;;;;;;5053391;28;20029;-82
2022/03/08 00:19:40;;;;;;;4.03;1.92;;;-3275.80;79.50;;;;;;5045078;28;20025;-82
2022/03/08 00:22:06;;;;;;;6.28;2.55;;;-3275.70;79.50;;;;;;5047830;28;20070;-81
2022/03/08 00:24:32;;;;;;;6.15;2.53;;;-3275.80;79.60;;;;;;5040634;28;20048;-81
2022/03/08 00:26:57;;;;;;;5.68;2.83;;;-3275.90;79.40;;;;;;5047429;28;20025;-82
2022/03/08 00:29:23;;;;;;;5.50;2.92;;;-3276.00;78.80;;;;;;5048602;28;20037;-83
2022/03/08 00:31:48;;;;;;;9.40;3.90;;;-3275.90;78.20;;;;;;5043320;28;20026;-82
2022/03/08 00:34:14;;;;;;;6.68;3.00;;;-3275.80;78.50;;;;;;5042966;28;20041;-82
2022/03/08 00:36:40;;;;;;;6.32;3.22;;;-3275.70;78.90;;;;;;5046748;28;20045;-82
2022/03/08 00:39:05;;;;;;;7.95;2.95;;;-3275.60;79.40;;;;;;5051099;28;20029;-82
2022/03/08 00:41:31;;;;;;;5.65;2.50;;;-3275.60;79.50;;;;;;5056490;28;20376;-82
2022/03/08 00:43:56;;;;;;;6.07;2.78;;;-3275.50;79.50;;;;;;5045416;28;20025;-82
2022/03/08 00:46:22;;;;;;;6.75;3.03;;;-3275.40;79.90;;;;;;5057939;28;20415;-84
2022/03/08 00:48:47;;;;;;;4.75;2.58;;;-3275.30;80.00;;;;;;5041723;28;20029;-82
2022/03/08 00:51:13;;;;;;;5.88;2.65;;;-3275.30;80.50;;;;;;5048417;28;20033;-82
2022/03/08 00:53:38;;;;;;;4.82;2.47;;;-3275.40;80.80;;;;;;5052081;28;20038;-82
2022/03/08 00:56:04;;;;;;;6.53;3.00;;;-3275.30;80.70;;;;;;5069857;28;20028;-82
2022/03/08 00:58:30;;;;;;;4.75;2.83;;;-3275.20;80.90;;;;;;5055811;28;20039;-82
2022/03/08 01:00:56;;;;;;;7.15;2.88;;;-3275.20;81.00;;;;;;5055863;28;20115;-82
2022/03/08 01:03:21;;;;;;;4.43;2.45;;;-3275.20;81.30;;;;;;5053402;28;20484;-82
2022/03/08 01:05:47;;;;;;;5.18;2.80;;;-3275.10;81.30;;;;;;5053654;28;20021;-82
2022/03/08 01:08:14;;;;;;;8.60;3.10;;;-3275.00;81.50;;;;;;5052214;28;20024;-82
2022/03/08 01:10:40;;;;;;;6.22;3.25;;;-3275.00;81.70;;;;;;5048458;28;20020;-82
2022/03/08 01:13:06;;;;;;;6.40;3.03;;;-3275.00;82.10;;;;;;5047190;28;20045;-82
2022/03/08 01:15:32;;;;;;;7.05;3.22;;;-3275.00;82.30;;;;;;5047974;28;20033;-82
2022/03/08 01:17:58;;;;;;;8.07;3.08;;;-3275.00;82.60;;;;;;5055631;28;20040;-81
2022/03/08 01:20:25;;;;;;;6.93;3.22;;;-3274.90;82.60;;;;;;5074372;28;20025;-81
2022/03/08 01:22:50;;;;;;;7.55;3.95;;;-3274.80;82.70;;;;;;5047207;28;20017;-81
2022/03/08 01:25:18;;;;;;;6.70;3.25;;;-3274.80;83.10;;;;;;5071312;28;20075;-81
2022/03/08 01:27:43;;;;;;;6.45;3.30;;;-3274.80;83.30;;;;;;5055786;28;20055;-83
2022/03/08 01:30:12;;;;;;;7.80;3.65;;;-3274.80;83.60;;;;;;5044791;28;20025;-81
2022/03/08 01:32:38;;;;;;;7.55;3.22;;;-3274.80;83.90;;;;;;5046323;28;20503;-81
2022/03/08 01:35:05;;;;;;;8.40;3.30;;;-3274.80;83.90;;;;;;5039126;28;20061;-81
2022/03/08 01:37:31;;;;;;;7.50;3.28;;;-3274.70;83.90;;;;;;5055726;28;20035;-83
2022/03/08 01:39:56;;;;;;;6.72;3.50;;;-3274.80;84.00;;;;;;5039116;28;20033;-82
2022/03/08 01:42:23;;;;;;;9.13;4.13;;;-3274.70;84.10;;;;;;5057138;28;20025;-82
2022/03/08 01:44:49;;;;;;;8.75;3.85;;;-3274.60;84.20;;;;;;5051401;28;20021;-82
2022/03/08 01:47:17;;;;;;;6.28;3.10;;;-3274.60;84.30;;;;;;5046456;28;21162;-82
2022/03/08 01:49:44;;;;;;;7.70;3.35;;;-3274.60;84.30;;;;;;5051441;28;20021;-82
2022/03/08 01:52:10;;;;;;;8.57;3.70;;;-3274.60;84.30;;;;;;5049990;28;20028;-82
2022/03/08 01:54:36;;;;;;;7.22;3.17;;;-3274.50;84.20;;;;;;5042811;28;20072;-82
2022/03/08 01:57:03;;;;;;;8.05;3.17;;;-3274.50;84.30;;;;;;5052838;28;20029;-82
2022/03/08 01:59:29;;;;;;;8.27;3.70;;;-3274.50;84.40;;;;;;5054222;28;20028;-82
2022/03/08 02:01:54;;;;;;;7.00;3.47;;;-3274.40;84.40;;;;;;5043150;28;20436;-83
2022/03/08 02:04:20;;;;;;;7.25;3.58;;;-3274.40;84.30;;;;;;5055276;28;20021;-82
2022/03/08 02:06:46;;;;;;;9.77;3.25;;;-3274.40;84.60;;;;;;5054174;28;20021;-82
2022/03/08 02:09:12;;;;;;;7.05;2.83;;;-3274.40;84.60;;;;;;5041967;28;20029;-82
2022/03/08 02:11:39;;;;;;;5.13;2.83;;;-3274.50;84.70;;;;;;5042797;28;20021;-81
2022/03/08 02:14:05;;;;;;;5.93;3.22;;;-3274.40;84.60;;;;;;5070905;28;20040;-81
2022/03/08 02:16:30;;;;;;;5.93;2.97;;;-3274.40;84.70;;;;;;5050410;28;20021;-81
2022/03/08 02:18:56;;;;;;;8.00;2.90;;;-3274.30;84.60;;;;;;5044136;28;20022;-81
2022/03/08 02:21:21;;;;;;;6.53;2.85;;;-3274.30;84.70;;;;;;5050543;28;20499;-82
2022/03/08 02:23:47;;;;;;;5.20;2.70;;;-3274.30;84.90;;;;;;5044817;28;20157;-82
2022/03/08 02:26:13;;;;;;;4.63;2.65;;;-3274.30;84.80;;;;;;5044453;28;20028;-82
2022/03/08 02:28:40;;;;;;;5.03;2.60;;;-3274.30;84.60;;;;;;5047412;28;20465;-82
2022/03/08 02:31:06;;;;;;;6.10;2.42;;;-3274.30;84.50;;;;;;5043140;28;20028;-81
2022/03/08 02:33:32;;;;;;;6.15;2.80;;;-3274.30;84.50;;;;;;5042749;28;20029;-81
2022/03/08 02:35:57;;;;;;;5.85;2.58;;;-3274.30;84.60;;;;;;5050170;28;20073;-82
2022/03/08 02:38:23;;;;;;;7.50;2.45;;;-3274.40;84.50;;;;;;5052835;28;20465;-82
2022/03/08 02:40:48;;;;;;;6.90;2.60;;;-3274.40;84.30;;;;;;5052458;28;20468;-82
2022/03/08 02:43:14;;;;;;;4.55;2.40;;;-3274.50;83.80;;;;;;5049969;28;20545;-83
2022/03/08 02:45:40;;;;;;;3.80;2.30;;;-3274.50;83.50;;;;;;5054367;28;20419;-82
2022/03/08 02:48:06;;;;;;;7.03;2.55;;;-3274.40;83.30;;;;;;5050951;28;20025;-82
2022/03/08 02:50:32;;;;;;;5.28;2.45;;;-3274.50;83.10;;;;;;5052311;28;20039;-82
2022/03/08 02:52:59;;;;;;;5.13;2.22;;;-3274.50;83.00;;;;;;5053505;28;20039;-82
2022/03/08 02:55:27;;;;;;;5.78;2.15;;;-3274.50;83.00;;;;;;5037203;28;20091;-83
2022/03/08 02:57:54;;;;;;;4.75;2.17;;;-3274.50;82.80;;;;;;5052494;28;20434;-82
2022/03/08 03:00:22;;;;;;;3.40;1.90;;;-3274.50;82.50;;;;;;5043102;28;20435;-82
2022/03/08 03:02:48;;;;;;;7.22;2.42;;;-3274.50;82.50;;;;;;5054417;28;20033;-82
2022/03/08 03:05:14;;;;;;;4.18;2.15;;;-3274.50;82.20;;;;;;5037085;28;20037;-81
2022/03/08 03:07:40;;;;;;;6.65;2.53;;;-3274.50;82.30;;;;;;5044372;28;20029;-81
2022/03/08 03:10:08;;;;;;;4.97;2.53;;;-3274.50;82.20;;;;;;5036045;28;20034;-81
2022/03/08 03:12:33;;;;;;;5.93;2.20;;;-3274.50;82.20;;;;;;5045310;28;20575;-81
2022/03/08 03:14:59;;;;;;;5.50;2.92;;;-3274.50;82.00;;;;;;5053977;28;20021;-81
2022/03/08 03:17:24;;;;;;;8.15;2.75;;;-3274.50;82.10;;;;;;5053011;28;20161;-82
2022/03/08 03:19:50;;;;;;;5.70;2.83;;;-3274.50;82.40;;;;;;5051394;28;20041;-82
2022/03/08 03:22:16;;;;;;;5.97;2.70;;;-3274.50;82.60;;;;;;5043376;28;20040;-82
2022/03/08 03:24:41;;;;;;;6.93;2.92;;;-3274.50;82.70;;;;;;5042599;28;20033;-82
2022/03/08 03:27:07;;;;;;;5.93;2.80;;;-3274.70;82.80;;;;;;5047635;28;20107;-82
2022/03/08 03:29:32;;;;;;;5.28;2.70;;;-3274.80;82.00;;;;;;5049819;28;20099;-82
2022/03/08 03:31:58;;;;;;;7.63;2.35;;;-3275.00;81.50;;;;;;5045711;28;20060;-83
2022/03/08 03:34:23;;;;;;;5.95;2.45;;;-3275.00;81.10;;;;;;5039787;28;20037;-82
2022/03/08 03:36:49;;;;;;;5.70;2.58;;;-3275.10;80.80;;;;;;5048787;28;20902;-82
2022/03/08 03:39:14;;;;;;;5.68;2.65;;;-3275.10;80.30;;;;;;5048442;28;20040;-82
2022/03/08 03:41:40;;;;;;;6.30;2.60;;;-3275.00;80.10;;;;;;5048744;28;20029;-82
2022/03/08 03:44:05;;;;;;;6.97;2.65;;;-3275.00;80.10;;;;;;5039107;28;20021;-81
2022/03/08 03:46:31;;;;;;;6.25;2.47;;;-3275.00;80.20;;;;;;5046587;28;20031;-81
2022/03/08 03:48:56;;;;;;;7.40;2.67;;;-3275.10;80.10;;;;;;5054043;28;20056;-81
2022/03/08 03:51:22;;;;;;;5.97;2.90;;;-3275.10;80.20;;;;;;5051113;28;20025;-81
2022/03/08 03:53:47;;;;;;;4.78;2.42;;;-3275.10;80.10;;;;;;5040042;28;20029;-81
2022/03/08 03:56:13;;;;;;;5.97;2.92;;;-3275.10;80.20;;;;;;5049626;28;20089;-82
2022/03/08 03:58:38;;;;;;;6.03;3.28;;;-3275.10;80.20;;;;;;5038732;28;20053;-82
2022/03/08 04:01:04;;;;;;;6.18;3.08;;;-3275.00;80.10;;;;;;5052877;28;20025;-82
2022/03/08 04:03:31;;;;;;;8.90;3.00;;;-3275.10;80.40;;;;;;5038116;28;20029;-81
2022/03/08 04:05:56;;;;;;;5.18;2.65;;;-3275.00;80.30;;;;;;5037408;28;20037;-81
2022/03/08 04:08:22;;;;;;;5.50;2.83;;;-3275.00;80.50;;;;;;5050586;28;20021;-81
2022/03/08 04:10:48;;;;;;;5.20;2.65;;;-3275.10;80.60;;;;;;5042551;28;20491;-81
2022/03/08 04:13:14;;;;;;;5.43;3.10;;;-3275.00;80.30;;;;;;5056982;28;20033;-81
2022/03/08 04:15:41;;;;;;;6.57;3.00;;;-3275.10;80.30;;;;;;5040631;28;20108;-81
2022/03/08 04:18:07;;;;;;;4.40;2.70;;;-3275.10;80.50;;;;;;5053504;28;20360;-81
2022/03/08 04:20:32;;;;;;;6.25;3.05;;;-3275.10;80.70;;;;;;5049634;28;20080;-81
2022/03/08 04:22:58;;;;;;;6.13;3.15;;;-3275.20;80.60;;;;;;5052507;28;20096;-81
2022/03/08 04:25:23;;;;;;;5.07;3.03;;;-3275.30;80.70;;;;;;5050382;28;20427;-81
2022/03/08 04:27:49;;;;;;;6.00;3.60;;;-3275.30;80.40;;;;;;5055762;28;20021;-81
2022/03/08 04:30:14;;;;;;;8.52;2.95;;;-3275.40;80.30;;;;;;5072355;28;20109;-82
2022/03/08 04:32:40;;;;;;;6.28;3.10;;;-3275.50;80.20;;;;;;5050891;28;20583;-82
2022/03/08 04:35:06;;;;;;;5.22;2.60;;;-3275.50;79.80;;;;;;5057406;28;20045;-82
2022/03/08 04:37:32;;;;;;;7.38;2.92;;;-3275.50;79.70;;;;;;5053428;28;20029;-82
2022/03/08 04:39:57;;;;;;;6.05;3.10;;;-3275.50;79.90;;;;;;5048933;28;20037;-82
2022/03/08 04:42:23;;;;;;;5.57;2.90;;;-3275.50;79.70;;;;;;5059523;28;20064;-82
2022/03/08 04:44:49;;;;;;;5.45;2.88;;;-3275.50;79.70;;;;;;5057972;28;20060;-82
2022/03/08 04:47:14;;;;;;;7.65;2.83;;;-3275.50;79.80;;;;;;5056431;28;20028;-81
2022/03/08 04:49:40;;;;;;;6.65;3.15;;;-3275.60;79.90;;;;;;5051202;28;20452;-82
2022/03/08 04:52:05;;;;;;;5.45;2.92;;;-3275.60;79.70;;;;;;5053560;28;20032;-82
2022/03/08 04:54:31;;;;;;;5.95;3.10;;;-3275.50;79.70;;;;;;5056693;28;20455;-81
2022/03/08 04:56:56;;;;;;;6.45;2.67;;;-3275.50;79.90;;;;;;5053600;28;20124;-81
2022/03/08 04:59:22;;;;;;;7.13;3.08;;;-3275.40;80.10;;;;;;5042380;28;20055;-81
2022/03/08 05:01:49;;;;;;;5.88;2.75;;;-3275.40;80.30;;;;;;5049892;28;20039;-82
2022/03/08 05:04:15;;;;;;;6.32;3.20;;;-3275.50;80.40;;;;;;5050218;28;20022;-83
2022/03/08 05:06:41;;;;;;;6.68;3.03;;;-3275.40;80.20;;;;;;5054446;28;20051;-82
2022/03/08 05:09:06;;;;;;;6.00;2.67;;;-3275.40;80.50;;;;;;5052867;28;20492;-82
2022/03/08 05:11:32;;;;;;;6.25;3.00;;;-3275.40;80.50;;;;;;5049915;28;20473;-81
2022/03/08 05:13:57;;;;;;;7.45;3.15;;;-3275.50;80.30;;;;;;5050576;28;20025;-81
2022/03/08 05:16:23;;;;;;;5.15;2.55;;;-3275.50;80.20;;;;;;5053996;28;20040;-81
2022/03/08 05:18:48;;;;;;;5.38;2.95;;;-3275.50;80.10;;;;;;5041359;28;20056;-81
2022/03/08 05:21:14;;;;;;;8.02;3.33;;;-3275.60;80.20;;;;;;5053483;28;20025;-81
2022/03/08 05:23:39;;;;;;;4.93;2.60;;;-3275.60;80.10;;;;;;5047303;28;20128;-81
2022/03/08 05:26:05;;;;;;;6.43;2.83;;;-3275.70;79.80;;;;;;5045213;28;20043;-82
2022/03/08 05:28:32;;;;;;;6.22;2.65;;;-3275.80;79.80;;;;;;5046210;28;20028;-81
2022/03/08 05:30:57;;;;;;;6.38;3.42;;;-3275.70;79.60;;;;;;5043043;28;20041;-81
2022/03/08 05:33:23;;;;;;;7.68;2.65;;;-3275.90;79.60;;;;;;5048760;28;20029;-81
2022/03/08 05:35:50;;;;;;;5.55;2.58;;;-3275.80;79.20;;;;;;5050606;28;20049;-81
2022/03/08 05:38:16;;;;;;;5.43;2.83;;;-3275.90;79.10;;;;;;5044959;28;20120;-82
2022/03/08 05:40:41;;;;;;;4.97;2.80;;;-3275.90;79.00;;;;;;5051724;28;20044;-81
2022/03/08 05:43:07;;;;;;;8.40;2.90;;;-3275.90;79.10;;;;;;5050447;28;20037;-81
2022/03/08 05:45:33;;;;;;;5.38;2.72;;;-3275.90;79.00;;;;;;5049648;28;20025;-81
2022/03/08 05:47:58;;;;;;;6.80;2.85;;;-3275.90;78.80;;;;;;5040552;28;20026;-81
2022/03/08 05:50:24;;;;;;;8.15;3.17;;;-3276.00;78.90;;;;;;5053378;28;20918;-82
2022/03/08 05:52:49;;;;;;;6.75;2.70;;;-3275.90;78.90;;;;;;5049961;28;20029;-81
2022/03/08 05:55:15;;;;;;;6.60;3.00;;;-3275.90;79.00;;;;;;5053035;28;20029;-81
2022/03/08 05:57:40;;;;;;;5.55;2.85;;;-3275.90;79.00;;;;;;5050213;28;20100;-81
2022/03/08 06:00:07;;;;;;;5.53;2.78;;;-3275.90;79.10;;;;;;5050887;28;20199;-81
2022/03/08 06:02:33;;;;;;;7.13;3.78;;;-3276.00;79.10;;;;;;5053012;28;20128;-81
2022/03/08 06:04:58;;;;;;;8.27;3.80;;;-3276.00;79.10;;;;;;5048618;28;20013;-81
2022/03/08 06:07:24;;;;;;;5.43;3.05;;;-3276.00;79.00;;;;;;5043613;28;20028;-81
2022/03/08 06:09:49;;;;;;;6.97;3.03;;;-3276.00;79.10;;;;;;5051215;28;20020;-81
2022/03/08 06:12:15;;;;;;;9.05;4.60;;;-3276.00;78.90;;;;;;5048653;28;20491;-80
2022/03/08 06:14:41;;;;;;;8.05;3.42;;;-3276.00;79.00;;;;;;5039226;28;20365;-81
2022/03/08 06:17:07;;;;;;;9.32;3.70;;;-3275.90;79.10;;;;;;5054547;28;20033;-81
2022/03/08 06:19:33;;;;;;;7.63;3.60;;;-3275.90;79.20;;;;;;5039766;28;20028;-81
2022/03/08 06:21:59;;;;;;;7.90;3.20;;;-3275.80;79.50;;;;;;5048592;28;20132;-81
2022/03/08 06:24:25;;;;;;;6.68;3.30;;;-3275.80;79.70;;;;;;5042590;28;20039;-81
2022/03/08 06:26:50;;;;;;;5.63;2.90;;;-3275.90;79.60;;;;;;5050030;28;20419;-81
2022/03/08 06:29:15;;;;;;;6.57;2.90;;;-3275.90;79.70;;;;;;5049262;28;20033;-81
2022/03/08 06:31:41;;;;;;;5.60;2.65;;;-3276.00;79.80;;;;;;5041940;28;20036;-81
2022/03/08 06:34:07;;;;;;;5.03;2.95;;;-3276.00;79.60;;;;;;5051785;28;20021;-81
2022/03/08 06:36:33;;;;;;;6.60;3.15;;;-3276.10;79.60;;;;;;5039717;28;20029;-81
2022/03/08 06:38:58;;;;;;;5.70;2.50;;;-3276.10;79.50;;;;;;5051640;28;20045;-81
2022/03/08 06:41:26;;;;;;;6.00;2.58;;;-3276.20;79.40;;;;;;5042811;28;20066;-80
2022/03/08 06:43:51;;;;;;;5.18;2.95;;;-3276.30;79.00;;;;;;5042034;28;20044;-79
2022/03/08 06:46:17;;;;;;;6.03;2.60;;;-3276.40;78.60;;;;;;5044841;28;20504;-79
2022/03/08 06:48:42;;;;;;;5.50;2.85;;;-3276.50;78.10;;;;;;5046760;28;20040;-79
2022/03/08 06:51:08;;;;;;;8.45;3.40;;;-3276.60;77.90;;;;;;5040281;28;20028;-79
2022/03/08 06:53:33;;;;;;;6.95;3.67;;;-3276.60;77.70;;;;;;5039466;28;20431;-79
2022/03/08 06:55:59;;;;;;;6.90;3.50;;;-3276.70;77.70;;;;;;5051535;28;20071;-79
2022/03/08 06:58:24;;;;;;;7.07;3.83;;;-3276.70;77.70;;;;;;5038092;28;20550;-79
2022/03/08 07:00:50;;;;;;;7.88;3.83;;;-3276.70;78.00;;;;;;5041161;28;20030;-79
2022/03/08 07:03:15;;;;;;;14.50;5.18;;;0.00;77.70;;;;;;5034494;28;20040;-78
2022/03/08 07:05:41;;;;;;;14.35;5.45;;;0.10;77.70;;;;;;5040720;28;20029;-78
2022/03/08 07:08:07;;;;;;;8.50;4.30;;;0.30;77.70;;;;;;5044440;28;20025;-78
2022/03/08 07:10:32;;;;;;;8.35;3.78;;;0.60;77.80;;;;;;5047658;28;20064;-79
2022/03/08 07:12:58;;;;;;;8.10;3.35;;;0.80;76.30;;;;;;5033081;28;20056;-79
2022/03/08 07:15:24;;;;;;;6.80;3.28;;;1.00;75.40;;;;;;5044521;28;20033;-79
2022/03/08 07:17:49;;;;;;;7.80;3.60;;;1.20;74.80;;;;;;5043005;28;20108;-79
2022/03/08 07:20:15;;;;;;;8.00;3.13;;;1.30;74.60;;;;;;5048543;28;20037;-79
2022/03/08 07:22:42;;;;;;;5.75;3.03;;;1.30;73.70;;;;;;5053737;28;20430;-79
2022/03/08 07:25:09;;;;;;;7.15;2.80;;;1.40;73.00;;;;;;5041201;28;20026;-78
2022/03/08 07:27:35;;;;;;;7.03;3.28;;;1.40;72.70;;;;;;5033321;28;20184;-78
2022/03/08 07:30:03;;;;;;;6.10;3.13;;;1.50;72.60;;;;;;5046408;28;20067;-79
2022/03/08 07:32:28;;;;;;;7.95;3.42;;;1.60;72.80;;;;;;5047370;28;20116;-80
2022/03/08 07:34:54;;;;;;;5.78;3.03;;;1.70;72.00;;;;;;5053351;28;20081;-79
2022/03/08 07:37:19;;;;;;;7.15;3.05;;;1.80;71.50;;;;;;5044368;28;20025;-79
2022/03/08 07:39:45;;;;;;;6.35;2.67;;;2.00;71.90;;;;;;5052515;28;20025;-79
2022/03/08 07:42:11;;;;;;;5.13;2.88;;;2.20;70.90;;;;;;5043653;28;20080;-80
2022/03/08 07:44:37;;;;;;;7.00;3.10;;;2.30;70.20;;;;;;5038073;28;20029;-79
2022/03/08 07:47:03;;;;;;;7.47;3.08;;;2.30;69.80;;;;;;5049047;28;20027;-79
2022/03/08 07:49:29;;;;;;;5.10;2.85;;;2.50;69.70;;;;;;5042428;28;20120;-79
2022/03/08 07:51:54;;;;;;;6.22;2.63;;;2.60;69.00;;;;;;5051796;28;20072;-79
2022/03/08 07:54:20;;;;;;;6.80;2.63;;;2.70;68.20;;;;;;5034330;28;20083;-79
2022/03/08 07:56:46;;;;;;;4.28;2.50;;;2.80;68.40;;;;;;5033227;28;20100;-80
2022/03/08 07:59:11;;;;;;;4.13;2.28;;;2.90;67.90;;;;;;5047020;28;20033;-80
2022/03/08 08:01:37;;;;;;;5.00;2.50;;;3.10;67.80;;;;;;5045102;28;20033;-79
2022/03/08 08:04:03;;;;;;;6.57;3.33;;;3.20;67.60;;;;;;5050817;28;20103;-79
2022/03/08 08:06:28;;;;;;;4.05;2.25;;;3.30;67.50;;;;;;5051420;28;20102;-80
2022/03/08 08:08:54;;;;;;;3.63;2.03;;;3.50;67.30;;;;;;5047599;28;20018;-79
2022/03/08 08:11:20;;;;;;;6.78;2.58;;;3.60;66.50;;;;;;5042865;28;20033;-79
2022/03/08 08:13:48;;;;;;;4.00;2.53;;;3.80;66.00;;;;;;5045858;28;20037;-79
2022/03/08 08:16:14;;;;;;;4.88;2.30;;;4.00;66.10;;;;;;5034886;28;20053;-79
2022/03/08 08:18:40;;;;;;;5.35;2.40;;;4.10;65.60;;;;;;5034686;28;20071;-80
2022/03/08 08:21:05;;;;;;;5.53;2.50;;;4.30;65.30;;;;;;5044023;28;20033;-79
2022/03/08 08:23:31;;;;;;;8.43;2.63;;;4.70;65.80;;;;;;5046180;28;20392;-80
2022/03/08 08:25:57;;;;;;;5.60;2.70;;;4.70;63.20;;;;;;5046122;28;20033;-80
2022/03/08 08:28:22;;;;;;;6.43;2.85;;;5.30;65.80;;;;;;5033976;28;20025;-80
2022/03/08 08:30:48;;;;;;;6.15;2.30;;;5.40;63.80;;;;;;5041350;28;20024;-82
2022/03/08 08:33:13;;;;;;;5.10;2.63;;;5.60;60.80;;;;;;5044578;28;20366;-80
2022/03/08 08:35:40;;;;;;;4.82;2.40;;;5.80;61.90;;;;;;5040733;28;20053;-80
2022/03/08 08:38:06;;;;;;;3.50;2.25;;;6.10;62.00;;;;;;5046323;28;20029;-80
2022/03/08 08:40:33;;;;;;;4.95;2.58;;;6.00;58.90;;;;;;5049978;28;20033;-81
2022/03/08 08:42:58;;;;;;;5.78;2.67;;;6.30;59.50;;;;;;5050235;28;20028;-81
2022/03/08 08:45:24;;;;;;;4.55;2.38;;;6.50;59.30;;;;;;5049550;28;20025;-82
2022/03/08 08:47:49;;;;;;;3.92;2.33;;;6.50;58.40;;;;;;5044970;28;20465;-81
2022/03/08 08:50:15;;;;;;;7.32;2.50;;;6.90;59.10;;;;;;5040034;28;20028;-81
2022/03/08 08:52:40;;;;;;;4.35;2.10;;;6.60;56.80;;;;;;5051197;28;20030;-81
2022/03/08 08:55:06;;;;;;;5.63;2.53;;;6.30;56.60;;;;;;5044075;28;20032;-81
2022/03/08 08:57:33;;;;;;;4.32;2.28;;;6.20;57.40;;;;;;5049795;28;20175;-81
2022/03/08 08:59:58;;;;;;;7.03;2.63;;;6.30;58.30;;;;;;5045269;28;20036;-81
2022/03/08 09:02:24;;;;;;;4.82;2.42;;;6.30;57.80;;;;;;5053402;28;20029;-81
2022/03/08 09:04:49;;;;;;;5.50;2.45;;;6.50;58.30;;;;;;5058498;28;20025;-81
2022/03/08 09:07:15;;;;;;;5.15;2.50;;;6.50;56.60;;;;;;5057589;28;20112;-81
2022/03/08 09:09:40;;;;;;;4.45;2.10;;;7.10;57.10;;;;;;5038025;28;20024;-81
2022/03/08 09:12:06;;;;;;;5.47;2.47;;;7.00;56.40;;;;;;5041475;28;20106;-81
2022/03/08 09:14:32;;;;;;;5.07;2.30;;;7.40;56.60;;;;;;5057271;28;20469;-82
2022/03/08 09:16:57;;;;;;;4.00;2.25;;;7.90;56.20;;;;;;5046876;28;20029;-81
2022/03/08 09:19:23;;;;;;;4.90;2.30;;;8.20;55.60;;;;;;5037674;28;20033;-81
2022/03/08 09:21:49;;;;;;;6.93;2.63;;;8.10;56.40;;;;;;5045146;28;20065;-81
2022/03/08 09:24:14;;;;;;;3.70;2.10;;;8.30;55.40;;;;;;5050333;28;20451;-81
2022/03/08 09:26:39;;;;;;;4.25;2.35;;;8.30;53.70;;;;;;5051449;28;20492;-81
2022/03/08 09:29:05;;;;;;;3.80;2.55;;;8.60;54.10;;;;;;5053071;28;20477;-81
2022/03/08 09:31:31;;;;;;;5.70;2.42;;;8.70;51.90;;;;;;5041474;28;20029;-81
2022/03/08 09:33:56;;;;;;;3.55;1.70;;;8.60;52.80;;;;;;5041311;28;20058;-81
2022/03/08 09:36:22;;;;;;;4.63;2.20;;;8.70;52.20;;;;;;5048553;28;20049;-81
2022/03/08 09:38:47;;;;;;;3.90;1.92;;;9.00;52.90;;;;;;5052602;28;20484;-81
2022/03/08 09:41:14;;;;;;;3.75;1.95;;;9.10;52.00;;;;;;5046773;28;20507;-81
2022/03/08 09:43:39;;;;;;;4.80;2.10;;;9.00;51.00;;;;;;5049737;28;20029;-81
2022/03/08 09:46:06;;;;;;;3.10;1.92;;;9.30;50.40;;;;;;5036824;28;20093;-81
2022/03/08 09:48:31;;;;;;;3.28;2.00;;;9.30;50.70;;;;;;5041271;28;20055;-81
2022/03/08 09:51:02;;;;;;;4.13;2.25;;;9.60;51.70;;;;;;5038512;28;20478;-81
2022/03/08 09:53:32;;;;;;;5.18;2.00;;;9.60;49.10;;;;;;5040939;28;20144;-81
2022/03/08 09:56:02;;;;;;;3.35;1.92;;;9.30;50.40;;;;;;5055497;28;20032;-81
2022/03/08 09:58:27;;;;;;;4.30;1.40;;;9.60;49.60;;;;;;5052884;28;20032;-82
2022/03/08 10:00:55;;;;;;;3.50;1.80;;;9.40;49.00;;;;;;5056922;28;20033;-80
2022/03/08 10:03:35;;;;;;;5.55;1.90;;;9.40;50.30;;;;;;5043325;28;20029;-80
2022/03/08 10:06:01;;;;;;;3.40;1.80;;;9.80;49.50;;;;;;5046961;28;20021;-80
2022/03/08 10:08:27;;;;;;;3.85;1.77;;;9.90;49.20;;;;;;5050923;28;20596;-80
2022/03/08 10:10:58;;;;;;;3.13;1.92;;;9.70;49.40;;;;;;5044453;28;20030;-81
2022/03/08 10:13:28;;;;;;;3.90;1.95;;;9.50;50.10;;;;;;5036640;28;20034;-81
2022/03/08 10:16:24;;;;;;;3.22;1.77;;;10.10;49.30;;;;;;5065140;28;20567;-81
2022/03/08 10:19:03;;;;;;;6.68;2.17;;;10.00;48.00;;;;;;5042077;28;20025;-82
2022/03/08 10:21:37;;;;;;;4.63;2.50;;;10.30;48.60;;;;;;5052599;28;20029;-81
2022/03/08 10:24:22;;;;;;;5.28;2.05;;;10.50;49.10;;;;;;5041736;28;20124;-81
2022/03/08 10:26:56;;;;;;;4.53;1.95;;;9.90;47.20;;;;;;5039944;28;20030;-81
2022/03/08 10:29:23;;;;;;;5.20;1.63;;;10.00;46.80;;;;;;5053377;28;20029;-81
2022/03/08 10:31:49;;;;;;;3.55;1.77;;;10.10;46.70;;;;;;5053181;28;20021;-81
2022/03/08 10:34:17;;;;;;;5.00;1.65;;;10.10;47.50;;;;;;5053932;28;20485;-81
2022/03/08 10:36:58;;;;;;;4.78;1.95;;;10.00;46.70;;;;;;5051922;28;20029;-82
2022/03/08 10:39:24;;;;;;;3.45;1.50;;;10.40;46.60;;;;;;5049908;28;20017;-81
2022/03/08 10:41:56;;;;;;;2.63;1.42;;;10.20;45.10;;;;;;5051648;28;20036;-80
2022/03/08 10:44:37;;;;;;;4.28;1.30;;;10.50;44.90;;;;;;5051178;28;20092;-81
2022/03/08 10:47:08;;;;;;;6.07;1.73;;;10.10;45.50;;;;;;5062043;28;20060;-81
2022/03/08 10:49:46;;;;;;;2.60;1.55;;;10.10;46.00;;;;;;5056059;28;20078;-81
2022/03/08 10:52:11;;;;;;;5.68;1.88;;;10.30;45.80;;;;;;5046161;28;20065;-81
2022/03/08 10:54:37;;;;;;;3.72;1.50;;;10.20;44.60;;;;;;5037746;28;20029;-81
2022/03/08 10:57:03;;;;;;;3.10;1.48;;;10.10;43.60;;;;;;5054753;28;20048;-80
2022/03/08 10:59:28;;;;;;;3.67;1.85;;;10.30;44.70;;;;;;5040452;28;20028;-80
2022/03/08 11:01:54;;;;;;;2.50;1.25;;;10.30;45.10;;;;;;5054601;28;20036;-81
2022/03/08 11:04:22;;;;;;;2.15;1.23;;;10.60;43.60;;;;;;5054528;28;20036;-81
2022/03/08 11:06:50;;;;;;;2.83;1.40;;;11.00;43.20;;;;;;5054201;28;20033;-82
2022/03/08 11:09:17;;;;;;;2.80;1.35;;;11.00;43.20;;;;;;5038679;28;20033;-81
2022/03/08 11:11:43;;;;;;;4.22;1.60;;;10.80;41.60;;;;;;5041692;28;20017;-81
2022/03/08 11:14:09;;;;;;;3.42;1.80;;;10.30;42.60;;;;;;5050146;28;20032;-81
2022/03/08 11:16:35;;;;;;;3.95;1.73;;;10.70;42.70;;;;;;5044435;28;20054;-81
2022/03/08 11:19:01;;;;;;;4.65;1.85;;;10.70;41.70;;;;;;5043103;28;20017;-81
2022/03/08 11:21:28;;;;;;;4.00;1.50;;;11.00;43.20;;;;;;5053368;28;20058;-81
2022/03/08 11:23:54;;;;;;;2.33;1.10;;;11.30;42.30;;;;;;5034817;28;20025;-82
2022/03/08 11:26:22;;;;;;;3.60;1.10;;;11.30;40.30;;;;;;5037061;28;20124;-82
2022/03/08 11:28:49;;;;;;;2.55;1.15;;;11.10;38.30;;;;;;5042066;28;20033;-82
2022/03/08 11:31:22;;;;;;;1.83;1.00;;;11.30;39.70;;;;;;5048080;28;20035;-81
2022/03/08 11:34:15;;;;;;;1.95;1.00;;;11.60;38.70;;;;;;5052741;28;20112;-81
2022/03/08 11:36:51;;;;;;;2.22;1.25;;;11.50;38.20;;;;;;5053955;28;20041;-81
2022/03/08 11:39:23;;;;;;;1.95;1.00;;;11.80;39.50;;;;;;5051875;28;20025;-81
2022/03/08 11:41:58;;;;;;;2.53;1.15;;;11.80;38.80;;;;;;5046842;28;20131;-81
2022/03/08 11:44:34;;;;;;;1.88;1.02;;;11.80;38.90;;;;;;5051720;28;20044;-81
2022/03/08 11:47:14;;;;;;;2.33;1.13;;;12.00;39.00;;;;;;5040074;28;20472;-81
2022/03/08 11:49:42;;;;;;;4.13;1.40;;;12.20;38.90;;;;;;5051177;28;20104;-82
2022/03/08 11:52:15;;;;;;;1.52;1.10;;;12.50;37.70;;;;;;5038376;28;20120;-82
2022/03/08 11:54:40;;;;;;;4.05;1.42;;;12.10;38.10;;;;;;5037807;28;20030;-81
2022/03/08 11:57:06;;;;;;;2.35;1.35;;;12.10;38.50;;;;;;5042633;28;20029;-82
2022/03/08 11:59:31;;;;;;;3.50;1.60;;;12.00;38.40;;;;;;5046839;28;20541;-82
2022/03/08 12:02:02;;;;;;;2.67;1.10;;;12.10;38.90;;;;;;5048704;28;20055;-82
2022/03/08 12:04:27;;;;;;;2.63;1.15;;;12.60;38.70;;;;;;5037414;28;20041;-82
2022/03/08 12:06:58;;;;;;;2.15;1.30;;;13.00;37.40;;;;;;5043011;28;20088;-82
2022/03/08 12:09:25;;;;;;;;;;;12.60;39.20;;;;;;5050000;28;20905;-82
2022/03/08 12:12:00;;;;;;;3.15;1.60;;;13.00;37.60;;;;;;5045350;28;19909;-82
2022/03/08 12:14:32;;;;;;;2.45;1.42;;;12.80;37.40;;;;;;5051740;28;20049;-82
2022/03/08 12:17:15;;;;;;;1.63;1.10;;;13.40;38.30;;;;;;5053977;28;20039;-82
2022/03/08 12:19:44;;;;;;;2.63;1.23;;;13.60;37.30;;;;;;5049600;28;20431;-81
2022/03/08 12:22:16;;;;;;;2.50;1.20;;;13.90;36.30;;;;;;5050870;28;20040;-82
2022/03/08 12:24:51;;;;;;;2.10;1.30;;;14.00;37.50;;;;;;5042526;28;20022;-82
2022/03/08 12:27:18;;;;;;;2.60;1.10;;;14.30;36.00;;;;;;5045275;28;20454;-81
2022/03/08 12:30:13;;;;;;;2.25;1.00;;;14.60;35.10;;;;;;5051422;28;20108;-82